Time;durP1;ratioP1;P1;durP2;ratioP2;P2;SDS_P1;SDS_P2;PMS_P1;PMS_P2;Temp;Humidity;BMP_temperature;BMP_pressure;BME280_temperature;BME280_humidity;BME280_pressure;Samples;Min_cycle;Max_cycle;Signal;HPM_P1;HPM_P2
2023/01/28 00:02:16;;;;;;;4.33;2.60;;;3.10;99.90;;;;;;5108891;28;20024;-72
2023/01/28 00:04:42;;;;;;;5.80;2.60;;;3.10;99.90;;;;;;5099192;28;20084;-72
2023/01/28 00:07:08;;;;;;;6.40;3.00;;;3.10;99.90;;;;;;5094405;28;20118;-72
2023/01/28 00:09:33;;;;;;;6.93;3.23;;;3.10;99.90;;;;;;5079049;28;20111;-72
2023/01/28 00:11:59;;;;;;;4.13;2.70;;;3.10;99.90;;;;;;5090803;28;20360;-72
2023/01/28 00:14:24;;;;;;;5.13;2.43;;;3.20;99.90;;;;;;5096708;28;20076;-72
2023/01/28 00:16:50;;;;;;;4.00;2.47;;;3.20;99.90;;;;;;5111812;28;20504;-72
2023/01/28 00:19:16;;;;;;;3.60;2.53;;;3.20;99.90;;;;;;5078169;28;20103;-72
2023/01/28 00:21:41;;;;;;;5.23;2.43;;;3.20;99.90;;;;;;5082143;28;20039;-72
2023/01/28 00:24:08;;;;;;;3.80;2.37;;;3.20;99.90;;;;;;5072661;28;20024;-72
2023/01/28 00:26:34;;;;;;;6.37;2.83;;;3.20;99.90;;;;;;5076101;28;20101;-72
2023/01/28 00:29:00;;;;;;;4.37;2.30;;;3.10;99.90;;;;;;5091909;28;20051;-72
2023/01/28 00:31:26;;;;;;;6.30;2.60;;;3.10;99.90;;;;;;5091805;28;20035;-72
2023/01/28 00:33:53;;;;;;;4.20;2.77;;;3.10;99.90;;;;;;5089489;28;20206;-72
2023/01/28 00:36:21;;;;;;;3.43;2.27;;;3.10;99.90;;;;;;5070508;28;20039;-72
2023/01/28 00:38:55;;;;;;;4.03;2.10;;;3.20;99.90;;;;;;5077101;28;20021;-71
2023/01/28 00:41:23;;;;;;;5.80;2.40;;;3.20;99.90;;;;;;5077623;28;20123;-72
2023/01/28 00:43:49;;;;;;;3.40;2.03;;;3.20;99.90;;;;;;5087813;28;20081;-71
2023/01/28 00:46:15;;;;;;;4.13;2.30;;;3.20;99.90;;;;;;5075385;28;20035;-72
2023/01/28 00:48:42;;;;;;;3.77;2.07;;;3.20;99.90;;;;;;5091230;28;20028;-72
2023/01/28 00:51:09;;;;;;;4.50;2.40;;;3.20;99.90;;;;;;5084878;28;20067;-72
2023/01/28 00:53:37;;;;;;;5.07;2.27;;;3.10;99.90;;;;;;5089862;28;20105;-72
2023/01/28 00:56:04;;;;;;;3.20;2.27;;;3.20;99.90;;;;;;5077642;28;20020;-72
2023/01/28 00:58:31;;;;;;;3.97;2.30;;;3.20;99.90;;;;;;5088291;28;20028;-73
2023/01/28 01:00:56;;;;;;;4.20;2.27;;;3.20;99.90;;;;;;5092964;28;20036;-72
2023/01/28 01:03:22;;;;;;;3.10;2.10;;;3.20;99.90;;;;;;5081409;28;20400;-72
2023/01/28 01:05:48;;;;;;;4.57;2.50;;;3.20;99.90;;;;;;5091355;28;20028;-72
2023/01/28 01:08:13;;;;;;;3.20;2.07;;;3.20;99.90;;;;;;5091099;28;20020;-72
2023/01/28 01:10:39;;;;;;;3.27;2.07;;;3.20;99.90;;;;;;5080303;28;20057;-71
2023/01/28 01:13:06;;;;;;;3.23;2.03;;;3.20;99.90;;;;;;5083607;28;20485;-71
2023/01/28 01:15:32;;;;;;;4.20;2.20;;;3.20;99.90;;;;;;5087592;28;20432;-73
2023/01/28 01:17:58;;;;;;;3.30;2.23;;;3.20;99.90;;;;;;5077330;28;20029;-72
2023/01/28 01:20:27;;;;;;;3.63;2.30;;;3.20;99.90;;;;;;5090283;28;20055;-71
2023/01/28 01:22:53;;;;;;;4.67;2.30;;;3.20;99.90;;;;;;5087718;28;20096;-72
2023/01/28 01:25:19;;;;;;;3.70;2.20;;;3.20;99.90;;;;;;5084492;28;20125;-72
2023/01/28 01:27:48;;;;;;;3.57;2.50;;;3.10;99.90;;;;;;5073401;28;20166;-72
2023/01/28 01:30:14;;;;;;;3.63;2.40;;;3.20;99.90;;;;;;5093742;28;20020;-72
2023/01/28 01:32:40;;;;;;;4.40;2.50;;;3.10;99.90;;;;;;5087738;28;20451;-72
2023/01/28 01:35:08;;;;;;;5.97;2.40;;;3.10;99.90;;;;;;5083847;28;20173;-71
2023/01/28 01:37:34;;;;;;;4.17;2.00;;;3.10;99.90;;;;;;5078566;28;20030;-72
2023/01/28 01:40:01;;;;;;;4.07;2.47;;;3.00;99.90;;;;;;5091979;28;20024;-71
2023/01/28 01:42:27;;;;;;;4.10;2.40;;;3.00;99.90;;;;;;5088534;28;20037;-71
2023/01/28 01:44:59;;;;;;;5.20;2.30;;;3.00;99.90;;;;;;5081587;28;20090;-72
2023/01/28 01:47:57;;;;;;;5.57;2.45;;;3.00;99.90;;;;;;5080280;28;20024;-72
2023/01/28 01:50:30;;;;;;;5.40;2.63;;;3.00;99.90;;;;;;5079751;28;20465;-72
2023/01/28 01:53:01;;;;;;;4.17;2.30;;;3.00;99.90;;;;;;5083930;28;20028;-72
2023/01/28 01:55:33;;;;;;;4.40;2.72;;;3.10;99.90;;;;;;5086688;28;20480;-72
2023/01/28 01:58:02;;;;;;;3.00;1.90;;;3.00;99.90;;;;;;5076552;28;20029;-72
2023/01/28 02:00:27;;;;;;;4.00;2.50;;;3.10;99.90;;;;;;5092111;28;20039;-72
2023/01/28 02:02:53;;;;;;;4.73;2.60;;;3.10;99.90;;;;;;5084639;28;20024;-71
2023/01/28 02:05:21;;;;;;;4.30;2.40;;;3.10;99.90;;;;;;5085211;28;20028;-72
2023/01/28 02:07:49;;;;;;;4.07;2.10;;;3.10;99.90;;;;;;5076171;28;20029;-72
2023/01/28 02:10:15;;;;;;;3.90;2.30;;;3.10;99.90;;;;;;5073224;28;20028;-72
2023/01/28 02:12:50;;;;;;;5.47;2.23;;;3.10;99.90;;;;;;5080948;28;20028;-72
2023/01/28 02:15:20;;;;;;;4.77;2.40;;;3.10;99.90;;;;;;5080725;28;20074;-71
2023/01/28 02:17:48;;;;;;;4.77;2.37;;;3.10;99.90;;;;;;5088546;28;20020;-71
2023/01/28 02:20:45;;;;;;;7.07;2.70;;;3.10;99.90;;;;;;5075980;28;20048;-71
2023/01/28 02:23:27;;;;;;;4.13;2.50;;;3.10;99.90;;;;;;5082527;28;20112;-72
2023/01/28 02:26:26;;;;;;;3.88;2.25;;;3.10;99.90;;;;;;5089327;28;20055;-72
2023/01/28 02:29:16;;;;;;;4.70;2.20;;;3.10;99.90;;;;;;5084743;28;20477;-72
2023/01/28 02:31:51;;;;;;;4.30;2.60;;;3.10;99.90;;;;;;5092341;28;20109;-72
2023/01/28 02:34:26;;;;;;;5.10;2.40;;;3.20;99.90;;;;;;5076661;28;20032;-72
2023/01/28 02:37:05;;;;;;;3.80;2.47;;;3.20;99.90;;;;;;5083055;28;20117;-72
2023/01/28 02:39:37;;;;;;;3.10;2.00;;;3.20;99.90;;;;;;5088111;28;20063;-71
2023/01/28 02:42:18;;;;;;;5.20;1.92;;;3.20;99.90;;;;;;5077316;28;20028;-71
2023/01/28 02:44:44;;;;;;;3.90;2.28;;;3.20;99.90;;;;;;5085820;28;20123;-71
2023/01/28 02:50:02;;;;;;;3.13;2.37;;;3.20;99.90;;;;;;5090403;28;20153;-72
2023/01/28 02:55:44;;;;;;;2.87;2.00;;;3.20;99.90;;;;;;5078503;28;20048;-74
2023/01/28 02:58:36;;;;;;;3.77;1.93;;;3.20;99.90;;;;;;5090099;28;20028;-72
2023/01/28 03:01:09;;;;;;;3.90;2.17;;;3.20;99.90;;;;;;5089982;28;20485;-72
2023/01/28 03:03:50;;;;;;;4.10;2.10;;;3.20;99.90;;;;;;5078597;28;20025;-75
2023/01/28 03:06:20;;;;;;;4.40;2.27;;;3.20;99.90;;;;;;5077066;28;20066;-71
2023/01/28 03:37:19;;;;;;;3.53;2.43;;;3.30;99.90;;;;;;5073609;28;20089;-71
2023/01/28 03:39:45;;;;;;;3.93;2.90;;;3.30;99.90;;;;;;5072777;28;20028;-72
2023/01/28 03:42:13;;;;;;;4.23;2.60;;;3.40;99.90;;;;;;5073417;28;20070;-71
2023/01/28 03:44:48;;;;;;;4.03;2.53;;;3.40;99.90;;;;;;5075655;28;20086;-73
2023/01/28 03:47:14;;;;;;;3.90;2.50;;;3.40;99.90;;;;;;5072373;28;20020;-72
2023/01/28 03:49:50;;;;;;;4.60;2.90;;;3.40;99.90;;;;;;5071387;28;20101;-73
2023/01/28 03:52:19;;;;;;;5.87;2.87;;;3.40;99.90;;;;;;5071992;28;20033;-73
2023/01/28 03:54:48;;;;;;;5.53;3.20;;;3.40;99.90;;;;;;5071129;28;20029;-72
2023/01/28 03:57:18;;;;;;;4.30;2.70;;;3.40;99.90;;;;;;5073064;28;20025;-71
2023/01/28 03:59:44;;;;;;;5.10;2.90;;;3.40;99.90;;;;;;5071288;28;20085;-72
2023/01/28 04:02:11;;;;;;;3.77;2.90;;;3.40;99.90;;;;;;5072677;28;20033;-72
2023/01/28 04:04:40;;;;;;;4.20;2.87;;;3.40;99.90;;;;;;5071615;28;20029;-73
2023/01/28 04:07:07;;;;;;;4.13;2.90;;;3.40;99.90;;;;;;5072866;28;20016;-71
2023/01/28 04:09:36;;;;;;;4.03;2.70;;;3.40;99.90;;;;;;5054796;28;20107;-71
2023/01/28 04:12:03;;;;;;;4.80;3.10;;;3.40;99.90;;;;;;5071251;28;20389;-71
2023/01/28 04:14:28;;;;;;;3.63;2.80;;;3.40;99.90;;;;;;5072583;28;20032;-71
2023/01/28 04:16:55;;;;;;;4.03;2.77;;;3.40;99.90;;;;;;5071005;28;20025;-72
2023/01/28 04:19:23;;;;;;;4.07;2.60;;;3.50;99.90;;;;;;5083512;28;20056;-72
2023/01/28 04:21:49;;;;;;;4.10;3.00;;;3.40;99.90;;;;;;5073382;28;20474;-72
2023/01/28 04:24:15;;;;;;;4.87;2.83;;;3.40;99.90;;;;;;5073845;28;20028;-72
2023/01/28 04:26:41;;;;;;;4.73;2.93;;;3.40;99.90;;;;;;5073268;28;20024;-73
2023/01/28 04:29:07;;;;;;;3.73;2.60;;;3.40;99.90;;;;;;5092506;28;20024;-72
2023/01/28 04:31:33;;;;;;;3.17;2.63;;;3.40;99.90;;;;;;5074182;28;20032;-72
2023/01/28 04:33:59;;;;;;;4.17;2.70;;;3.40;99.90;;;;;;5073447;28;20055;-72
2023/01/28 04:36:25;;;;;;;3.80;2.73;;;3.40;99.90;;;;;;5074406;28;20461;-71
2023/01/28 04:38:51;;;;;;;4.50;2.77;;;3.30;99.90;;;;;;5073379;28;20032;-72
2023/01/28 04:41:17;;;;;;;4.77;2.73;;;3.40;99.90;;;;;;5074248;28;20032;-72
2023/01/28 04:43:43;;;;;;;5.23;3.27;;;3.40;99.90;;;;;;5073504;28;20426;-72
2023/01/28 04:46:08;;;;;;;4.83;3.13;;;3.40;99.90;;;;;;5074195;28;20107;-72
2023/01/28 04:48:35;;;;;;;5.93;3.10;;;3.40;99.90;;;;;;5091859;28;20063;-71
2023/01/28 04:51:01;;;;;;;6.97;3.43;;;3.40;99.90;;;;;;5072976;28;20039;-72
2023/01/28 04:53:27;;;;;;;4.60;2.70;;;3.40;99.90;;;;;;5091829;28;20025;-72
2023/01/28 04:55:52;;;;;;;4.77;3.23;;;3.40;99.90;;;;;;5073265;28;20362;-72
2023/01/28 04:58:18;;;;;;;4.83;3.07;;;3.40;99.90;;;;;;5092020;28;20024;-72
2023/01/28 05:00:43;;;;;;;4.43;2.53;;;3.40;99.90;;;;;;5073112;28;20031;-73
2023/01/28 05:03:09;;;;;;;4.83;3.00;;;3.40;99.90;;;;;;5092290;28;20508;-72
2023/01/28 05:05:34;;;;;;;4.27;2.73;;;3.40;99.90;;;;;;5073904;28;20028;-72
2023/01/28 05:08:00;;;;;;;5.03;2.90;;;3.30;99.90;;;;;;5073108;28;20091;-72
2023/01/28 05:10:26;;;;;;;5.27;2.60;;;3.30;99.90;;;;;;5091962;28;20469;-72
2023/01/28 05:12:52;;;;;;;4.23;2.73;;;3.30;99.90;;;;;;5072915;28;20036;-72
2023/01/28 05:15:18;;;;;;;4.20;2.87;;;3.40;99.90;;;;;;5092275;28;20032;-72
2023/01/28 05:17:44;;;;;;;6.87;2.90;;;3.30;99.90;;;;;;5091066;28;20031;-74
2023/01/28 05:20:13;;;;;;;5.57;2.83;;;3.40;99.90;;;;;;5073621;28;20270;-72
2023/01/28 05:22:39;;;;;;;4.43;2.80;;;3.30;99.90;;;;;;5073484;28;20036;-72
2023/01/28 05:25:06;;;;;;;4.83;3.00;;;3.30;99.90;;;;;;5091128;28;20028;-72
2023/01/28 05:27:32;;;;;;;3.53;2.43;;;3.30;99.90;;;;;;5091557;28;20095;-72
2023/01/28 05:29:58;;;;;;;3.70;2.53;;;3.30;99.90;;;;;;5072819;28;20024;-72
2023/01/28 05:32:24;;;;;;;3.30;2.37;;;3.30;99.90;;;;;;5091471;28;20032;-71
2023/01/28 05:34:50;;;;;;;3.73;2.40;;;3.30;99.90;;;;;;5092366;28;20137;-71
2023/01/28 05:37:16;;;;;;;4.90;2.83;;;3.30;99.90;;;;;;5095271;28;20107;-71
2023/01/28 05:39:41;;;;;;;4.03;2.30;;;3.30;99.90;;;;;;5095316;28;20099;-73
2023/01/28 05:42:07;;;;;;;4.20;2.87;;;3.30;99.90;;;;;;5076572;28;20029;-71
2023/01/28 05:44:32;;;;;;;4.53;2.47;;;3.30;99.90;;;;;;5077260;28;20430;-71
2023/01/28 05:46:58;;;;;;;3.93;2.63;;;3.30;99.90;;;;;;5076373;28;20119;-71
2023/01/28 05:49:25;;;;;;;3.73;2.50;;;3.30;99.90;;;;;;5095496;28;20032;-71
2023/01/28 05:51:51;;;;;;;3.00;2.17;;;3.30;99.90;;;;;;5076267;28;20071;-71
2023/01/28 05:54:16;;;;;;;3.57;2.20;;;3.20;99.90;;;;;;5094905;28;20058;-71
2023/01/28 05:56:42;;;;;;;3.70;2.37;;;3.30;99.90;;;;;;5076946;28;20457;-74
2023/01/28 05:59:10;;;;;;;3.47;2.40;;;3.30;99.90;;;;;;5076299;28;20020;-72
2023/01/28 06:01:35;;;;;;;5.70;2.13;;;3.30;99.90;;;;;;5076717;28;20032;-71
2023/01/28 06:04:01;;;;;;;3.47;2.20;;;3.30;99.90;;;;;;5076179;28;20570;-71
2023/01/28 06:06:26;;;;;;;5.37;2.53;;;3.30;99.90;;;;;;5094787;28;20032;-72
2023/01/28 06:08:52;;;;;;;4.60;2.30;;;3.30;99.90;;;;;;5094311;28;20031;-72
2023/01/28 06:11:17;;;;;;;3.00;1.87;;;3.30;99.90;;;;;;5076818;28;20066;-72
2023/01/28 06:13:43;;;;;;;3.70;2.27;;;3.30;99.90;;;;;;5076797;28;20448;-73
2023/01/28 06:16:08;;;;;;;3.07;2.33;;;3.30;99.90;;;;;;5076169;28;20055;-72
2023/01/28 06:18:34;;;;;;;4.40;2.20;;;3.30;99.90;;;;;;5076292;28;20048;-72
2023/01/28 06:21:00;;;;;;;3.10;2.10;;;3.30;99.90;;;;;;5075849;28;20040;-72
2023/01/28 06:23:25;;;;;;;2.90;2.10;;;3.30;99.90;;;;;;5076557;28;20101;-72
2023/01/28 06:25:55;;;;;;;3.77;2.43;;;3.30;99.90;;;;;;5075891;28;20052;-72
2023/01/28 06:28:21;;;;;;;3.83;2.43;;;3.30;99.90;;;;;;5076533;28;20028;-72
2023/01/28 06:30:51;;;;;;;3.17;2.17;;;3.30;99.90;;;;;;5075827;28;20431;-74
2023/01/28 06:33:17;;;;;;;2.93;1.93;;;3.30;99.90;;;;;;5076282;28;20107;-72
2023/01/28 06:35:43;;;;;;;3.17;2.03;;;3.30;99.90;;;;;;5076357;28;20024;-72
2023/01/28 06:38:10;;;;;;;6.43;2.67;;;3.30;99.90;;;;;;5075414;28;20024;-72
2023/01/28 06:40:35;;;;;;;3.53;2.33;;;3.20;99.90;;;;;;5076113;28;20039;-71
2023/01/28 06:43:01;;;;;;;3.67;2.40;;;3.20;99.90;;;;;;5075352;28;20423;-72
2023/01/28 06:45:27;;;;;;;4.07;2.43;;;3.20;99.90;;;;;;5094276;28;20073;-71
2023/01/28 06:47:52;;;;;;;3.07;2.17;;;3.20;99.90;;;;;;5074749;28;20028;-71
2023/01/28 06:50:18;;;;;;;3.63;2.70;;;3.20;99.90;;;;;;5094324;28;20028;-72
2023/01/28 06:52:43;;;;;;;3.50;2.27;;;3.20;99.90;;;;;;5093842;28;20035;-71
2023/01/28 06:55:09;;;;;;;7.30;3.60;;;3.20;99.90;;;;;;5093230;28;20494;-71
2023/01/28 06:57:38;;;;;;;5.73;3.10;;;3.20;99.90;;;;;;5094004;28;20028;-72
2023/01/28 07:00:05;;;;;;;3.60;2.33;;;3.20;99.90;;;;;;5093135;28;20023;-72
2023/01/28 07:02:31;;;;;;;3.37;2.27;;;3.20;99.90;;;;;;5075671;28;20046;-72
2023/01/28 07:04:56;;;;;;;5.13;2.50;;;3.30;99.90;;;;;;5074992;28;20020;-72
2023/01/28 07:07:22;;;;;;;3.77;2.27;;;3.30;99.90;;;;;;5093764;28;20035;-72
2023/01/28 07:09:48;;;;;;;3.80;2.37;;;3.30;99.90;;;;;;5075286;28;20024;-74
2023/01/28 07:12:13;;;;;;;4.43;2.43;;;3.30;99.90;;;;;;5075126;28;20036;-72
2023/01/28 07:14:39;;;;;;;4.27;2.33;;;3.30;99.90;;;;;;5093737;28;20035;-72
2023/01/28 07:17:04;;;;;;;4.53;2.90;;;3.30;99.90;;;;;;5093236;28;20103;-72
2023/01/28 07:19:30;;;;;;;4.70;2.80;;;3.30;99.90;;;;;;5071570;28;20056;-72
2023/01/28 07:21:59;;;;;;;3.47;2.63;;;3.30;99.90;;;;;;5071253;28;20036;-72
2023/01/28 07:24:25;;;;;;;4.13;2.60;;;3.20;99.90;;;;;;5073260;28;20029;-72
2023/01/28 07:26:51;;;;;;;4.07;2.90;;;3.30;99.90;;;;;;5071289;28;20029;-73
2023/01/28 07:29:16;;;;;;;4.73;2.87;;;3.20;99.90;;;;;;5071569;28;20048;-71
2023/01/28 07:31:42;;;;;;;5.20;3.00;;;3.20;99.90;;;;;;5071758;28;20063;-72
2023/01/28 07:34:08;;;;;;;5.93;3.30;;;3.20;99.90;;;;;;5072235;28;20825;-72
2023/01/28 07:36:34;;;;;;;7.70;3.40;;;3.20;99.90;;;;;;5071738;28;20025;-72
2023/01/28 07:38:59;;;;;;;5.03;2.63;;;3.30;99.90;;;;;;5072089;28;20028;-72
2023/01/28 07:41:26;;;;;;;4.57;3.10;;;3.20;99.90;;;;;;5072816;28;20108;-72
2023/01/28 07:43:52;;;;;;;6.20;3.37;;;3.30;99.90;;;;;;5071011;28;20055;-73
2023/01/28 07:46:18;;;;;;;4.63;2.67;;;3.20;99.90;;;;;;5072565;28;20060;-72
2023/01/28 07:48:44;;;;;;;4.37;2.80;;;3.30;99.90;;;;;;5071116;28;20033;-72
2023/01/28 07:51:10;;;;;;;3.93;2.60;;;3.30;99.90;;;;;;5071981;28;20110;-72
2023/01/28 07:53:36;;;;;;;4.17;2.70;;;3.20;99.90;;;;;;5071426;28;20025;-72
2023/01/28 07:56:03;;;;;;;4.47;2.73;;;3.30;99.90;;;;;;5072052;28;20021;-72
2023/01/28 07:58:29;;;;;;;3.93;2.57;;;3.20;99.90;;;;;;5071885;28;20028;-72
2023/01/28 08:00:58;;;;;;;4.37;2.77;;;3.30;99.90;;;;;;5070424;28;20033;-72
2023/01/28 08:03:24;;;;;;;4.03;2.70;;;3.20;99.90;;;;;;5072611;28;20023;-72
2023/01/28 08:05:52;;;;;;;3.70;2.20;;;3.20;99.90;;;;;;5071216;28;20028;-71
2023/01/28 08:08:18;;;;;;;4.20;2.70;;;3.20;99.90;;;;;;5054038;28;20035;-72
2023/01/28 08:10:44;;;;;;;4.93;2.70;;;3.30;99.90;;;;;;5072435;28;20462;-71
2023/01/28 08:13:11;;;;;;;4.63;2.30;;;3.30;99.90;;;;;;5071902;28;20089;-72
2023/01/28 08:15:37;;;;;;;3.43;2.53;;;3.20;99.90;;;;;;5072406;28;20020;-72
2023/01/28 08:18:04;;;;;;;4.87;2.40;;;3.20;99.90;;;;;;5069942;28;20029;-72
2023/01/28 08:20:30;;;;;;;4.10;2.57;;;3.20;99.90;;;;;;5074459;28;20076;-71
2023/01/28 08:23:08;;;;;;;4.23;2.53;;;3.20;99.90;;;;;;5091688;28;20024;-72
2023/01/28 08:25:34;;;;;;;4.90;3.00;;;3.20;99.90;;;;;;5074093;28;20031;-72
2023/01/28 08:28:01;;;;;;;4.10;2.67;;;3.20;99.90;;;;;;5073581;28;20196;-72
2023/01/28 08:30:27;;;;;;;5.27;2.73;;;3.20;99.90;;;;;;5077293;28;20024;-71
2023/01/28 08:32:58;;;;;;;4.90;2.87;;;3.20;99.90;;;;;;5112609;28;20023;-74
2023/01/28 08:35:25;;;;;;;4.90;3.20;;;3.20;99.90;;;;;;5094649;28;20020;-72
2023/01/28 08:37:51;;;;;;;5.87;3.60;;;3.20;99.90;;;;;;5094290;28;20129;-72
2023/01/28 08:40:17;;;;;;;7.10;3.57;;;3.20;99.90;;;;;;5093472;28;20453;-72
2023/01/28 08:42:51;;;;;;;8.47;3.80;;;3.20;99.90;;;;;;5094221;28;20039;-72
2023/01/28 08:45:17;;;;;;;7.30;3.73;;;3.20;99.90;;;;;;5093446;28;20489;-72
2023/01/28 08:48:00;;;;;;;8.90;4.03;;;3.20;99.90;;;;;;5112577;28;20545;-71
2023/01/28 08:50:28;;;;;;;9.93;5.27;;;3.20;99.90;;;;;;5112423;28;20038;-71
2023/01/28 08:52:58;;;;;;;9.30;4.47;;;3.20;99.90;;;;;;5111982;28;20043;-73
2023/01/28 08:55:26;;;;;;;8.77;4.20;;;3.20;99.90;;;;;;5094598;28;20024;-72
2023/01/28 08:57:52;;;;;;;9.10;4.57;;;3.20;99.90;;;;;;5112455;28;20129;-71
2023/01/28 09:00:18;;;;;;;8.63;3.83;;;3.20;99.90;;;;;;5093181;28;20477;-72
2023/01/28 09:02:43;;;;;;;8.30;3.30;;;3.30;99.90;;;;;;5094082;28;20035;-71
2023/01/28 09:05:09;;;;;;;5.53;3.40;;;3.30;99.90;;;;;;5111323;28;20028;-72
2023/01/28 09:07:36;;;;;;;7.07;3.57;;;3.40;99.90;;;;;;5112650;28;20081;-72
2023/01/28 09:10:03;;;;;;;6.10;3.50;;;3.40;99.90;;;;;;5095179;28;20421;-71
2023/01/28 09:12:29;;;;;;;6.00;3.80;;;3.40;99.90;;;;;;5116322;28;20032;-72
2023/01/28 09:14:55;;;;;;;7.33;3.67;;;3.50;99.90;;;;;;5097796;28;20030;-73
2023/01/28 09:17:21;;;;;;;5.10;3.40;;;3.40;99.90;;;;;;5097732;28;20028;-72
2023/01/28 09:19:46;;;;;;;5.53;3.13;;;3.40;99.90;;;;;;5097650;28;20043;-71
2023/01/28 09:22:12;;;;;;;5.63;3.80;;;3.40;99.90;;;;;;5115214;28;20489;-72
2023/01/28 09:24:38;;;;;;;6.07;3.37;;;3.50;99.90;;;;;;5093476;28;20524;-73
2023/01/28 09:27:03;;;;;;;5.17;3.17;;;3.60;99.90;;;;;;5091361;28;20047;-72
2023/01/28 09:29:29;;;;;;;6.67;3.33;;;3.60;99.90;;;;;;5098176;28;20023;-71
2023/01/28 09:31:54;;;;;;;4.97;3.23;;;3.60;99.90;;;;;;5099352;28;20052;-73
2023/01/28 09:34:20;;;;;;;4.70;2.73;;;3.70;99.90;;;;;;5114118;28;20027;-71
2023/01/28 09:36:46;;;;;;;5.60;3.10;;;3.70;99.90;;;;;;5097477;28;20020;-71
2023/01/28 09:39:12;;;;;;;5.07;3.30;;;3.80;99.90;;;;;;5092037;28;20027;-71
2023/01/28 09:41:54;;;;;;;5.40;3.40;;;3.90;99.90;;;;;;5097254;28;20504;-71
2023/01/28 09:44:44;;;;;;;4.60;2.85;;;3.90;99.90;;;;;;5079294;28;20516;-72
2023/01/28 09:47:39;;;;;;;6.63;3.40;;;4.00;99.90;;;;;;5085926;28;20028;-71
2023/01/28 09:50:08;;;;;;;4.53;3.07;;;4.00;99.90;;;;;;5086696;28;20031;-72
2023/01/28 09:52:38;;;;;;;5.20;3.00;;;4.00;99.90;;;;;;5100085;28;20026;-71
2023/01/28 09:55:06;;;;;;;7.13;3.27;;;4.00;99.90;;;;;;5109413;28;20023;-71
2023/01/28 09:57:47;;;;;;;5.43;3.10;;;4.10;99.90;;;;;;5094586;28;20019;-71
2023/01/28 10:00:19;;;;;;;5.90;3.17;;;4.10;99.90;;;;;;5110761;28;20020;-71
2023/01/28 10:03:03;;;;;;;5.17;2.97;;;4.00;99.90;;;;;;5095388;28;20028;-72
2023/01/28 10:05:49;;;;;;;4.93;3.17;;;4.00;99.90;;;;;;5083340;28;20028;-71
2023/01/28 10:08:36;;;;;;;6.00;3.10;;;4.00;99.90;;;;;;5110732;28;20110;-71
2023/01/28 10:11:21;;;;;;;5.33;3.03;;;4.00;99.90;;;;;;5102374;28;20054;-72
2023/01/28 10:13:55;;;;;;;5.47;3.10;;;4.10;99.90;;;;;;5112552;28;20136;-72
2023/01/28 10:16:49;;;;;;;5.03;3.43;;;4.00;99.90;;;;;;5112483;28;20023;-72
2023/01/28 10:19:41;;;;;;;5.97;3.43;;;4.00;99.90;;;;;;5086232;28;20048;-72
2023/01/28 10:22:21;;;;;;;4.13;3.20;;;4.00;99.90;;;;;;5097027;28;20463;-73
2023/01/28 10:24:52;;;;;;;7.77;3.37;;;3.90;99.90;;;;;;5081469;28;20031;-74
2023/01/28 10:27:24;;;;;;;6.13;3.67;;;3.90;99.90;;;;;;5110529;28;20781;-73
2023/01/28 10:29:51;;;;;;;7.57;3.45;;;3.90;99.90;;;;;;5085097;28;20047;-74
2023/01/28 10:32:37;;;;;;;5.70;3.43;;;3.90;99.90;;;;;;5087399;28;20486;-74
2023/01/28 10:35:03;;;;;;;6.00;3.90;;;3.80;99.90;;;;;;5087016;28;20023;-74
2023/01/28 10:37:35;;;;;;;6.67;3.53;;;3.80;99.90;;;;;;5080328;28;20457;-73
2023/01/28 10:40:02;;;;;;;5.63;3.67;;;3.80;99.90;;;;;;5100564;28;20115;-74
2023/01/28 10:42:31;;;;;;;5.70;3.70;;;3.80;99.90;;;;;;5109825;28;20369;-75
2023/01/28 10:45:07;;;;;;;5.80;3.73;;;3.80;99.90;;;;;;5102151;28;20020;-73
2023/01/28 10:47:39;;;;;;;5.97;3.43;;;3.80;99.90;;;;;;5102468;28;20532;-73
2023/01/28 10:50:06;;;;;;;;;;;3.90;99.90;;;;;;5088415;28;20118;-73
2023/01/28 10:52:32;;;;;;;5.37;3.40;;;3.90;99.90;;;;;;5096039;28;19951;-73
2023/01/28 10:55:03;;;;;;;7.03;3.70;;;3.90;99.90;;;;;;5087147;28;20051;-74
2023/01/28 10:57:28;;;;;;;7.03;3.70;;;3.90;99.90;;;;;;5100720;28;20035;-74
2023/01/28 10:59:54;;;;;;;5.47;3.60;;;3.90;99.90;;;;;;5110716;28;20099;-74
2023/01/28 11:02:31;;;;;;;7.47;3.53;;;4.00;99.90;;;;;;5092052;28;20031;-73
2023/01/28 11:05:15;;;;;;;6.03;3.77;;;3.90;99.90;;;;;;5084310;28;20117;-74
2023/01/28 11:07:41;;;;;;;6.10;3.77;;;3.90;99.90;;;;;;5081056;28;20526;-73
2023/01/28 11:10:30;;;;;;;5.37;3.20;;;4.00;99.90;;;;;;5092045;28;20027;-73
2023/01/28 11:12:58;;;;;;;5.57;3.60;;;4.00;99.90;;;;;;5084360;28;20031;-74
2023/01/28 11:15:24;;;;;;;7.07;3.67;;;4.00;99.90;;;;;;5101316;28;20028;-73
2023/01/28 11:17:56;;;;;;;7.60;4.13;;;4.00;99.90;;;;;;5091519;28;20031;-73
2023/01/28 11:20:25;;;;;;;10.15;3.78;;;4.00;99.90;;;;;;5079514;28;20056;-74
2023/01/28 11:22:53;;;;;;;5.53;3.67;;;4.00;99.90;;;;;;5085695;28;20564;-73
2023/01/28 11:25:33;;;;;;;5.63;3.83;;;4.00;99.90;;;;;;5080879;28;20062;-73
2023/01/28 11:28:01;;;;;;;6.60;3.57;;;4.00;99.90;;;;;;5094374;28;20457;-74
2023/01/28 11:30:36;;;;;;;7.37;3.90;;;4.00;99.90;;;;;;5088942;28;20027;-73
2023/01/28 11:33:21;;;;;;;6.53;3.53;;;4.00;99.90;;;;;;5086283;28;20147;-74
2023/01/28 11:36:03;;;;;;;7.60;4.03;;;4.00;99.90;;;;;;5078829;28;20020;-74
2023/01/28 11:38:28;;;;;;;6.90;3.33;;;4.10;99.90;;;;;;5088813;28;20031;-73
2023/01/28 11:40:57;;;;;;;6.27;3.53;;;4.10;99.90;;;;;;5085334;28;20039;-73
2023/01/28 11:43:28;;;;;;;7.23;3.93;;;4.10;99.90;;;;;;5094708;28;20035;-74
2023/01/28 11:46:19;;;;;;;6.65;3.40;;;4.00;99.90;;;;;;5078650;28;20455;-74
2023/01/28 11:49:09;;;;;;;5.27;3.10;;;4.00;99.90;;;;;;5102835;28;20035;-74
2023/01/28 11:51:56;;;;;;;7.00;3.20;;;4.00;99.90;;;;;;5091794;28;20071;-73
2023/01/28 11:54:36;;;;;;;5.40;3.80;;;4.00;99.90;;;;;;5080229;28;20063;-74
2023/01/28 11:57:30;;;;;;;5.33;3.10;;;4.00;99.90;;;;;;5085974;28;20030;-74
2023/01/28 12:00:17;;;;;;;6.33;3.30;;;4.10;99.90;;;;;;5096379;28;20065;-73
2023/01/28 12:03:13;;;;;;;5.63;2.90;;;4.10;99.90;;;;;;5103908;28;20080;-74
2023/01/28 12:05:51;;;;;;;5.37;3.27;;;4.10;99.90;;;;;;5074849;28;20028;-73
2023/01/28 12:08:29;;;;;;;6.20;3.60;;;4.10;99.90;;;;;;5088687;28;20358;-73
2023/01/28 12:11:03;;;;;;;4.70;2.93;;;4.20;99.90;;;;;;5085534;28;20042;-73
2023/01/28 12:13:59;;;;;;;5.07;3.23;;;4.20;99.90;;;;;;5078696;28;20028;-73
2023/01/28 12:16:44;;;;;;;6.03;3.30;;;4.10;99.90;;;;;;5098554;28;20055;-73
2023/01/28 12:19:25;;;;;;;6.03;3.50;;;4.10;99.90;;;;;;5098712;28;20044;-74
2023/01/28 12:22:06;;;;;;;7.88;3.65;;;4.10;99.90;;;;;;5100040;28;20042;-72
2023/01/28 12:25:00;;;;;;;4.93;3.40;;;4.20;99.90;;;;;;5086933;28;20028;-74
2023/01/28 12:27:54;;;;;;;5.67;3.63;;;4.20;99.90;;;;;;5094021;28;20569;-73
2023/01/28 12:30:35;;;;;;;9.93;4.73;;;4.10;99.90;;;;;;5097959;28;20605;-74
2023/01/28 12:33:25;;;;;;;7.50;3.63;;;4.20;99.90;;;;;;5100459;28;20500;-74
2023/01/28 12:36:26;;;;;;;4.63;3.07;;;4.20;99.90;;;;;;5076069;28;20487;-73
2023/01/28 12:39:13;;;;;;;4.77;2.77;;;4.20;99.90;;;;;;5101909;28;20016;-73
2023/01/28 12:41:43;;;;;;;4.50;2.93;;;4.20;99.90;;;;;;5090695;28;20035;-73
2023/01/28 12:44:22;;;;;;;6.97;3.20;;;4.20;99.90;;;;;;5087992;28;20556;-73
2023/01/28 12:47:01;;;;;;;5.87;3.30;;;4.10;99.90;;;;;;5083629;28;20032;-73
2023/01/28 12:49:35;;;;;;;5.10;3.30;;;4.10;99.90;;;;;;5092796;28;20035;-73
2023/01/28 12:52:14;;;;;;;4.93;2.87;;;4.20;99.90;;;;;;5089069;28;20059;-74
2023/01/28 12:55:10;;;;;;;6.10;2.80;;;4.20;99.90;;;;;;5082027;28;20413;-73
2023/01/28 12:57:36;;;;;;;6.20;2.40;;;4.20;99.90;;;;;;5093632;28;20078;-73
2023/01/28 13:00:26;;;;;;;4.17;2.50;;;4.20;99.90;;;;;;5076738;28;20020;-76
2023/01/28 13:03:07;;;;;;;5.30;2.83;;;4.20;99.90;;;;;;5083363;28;20389;-73
2023/01/28 13:05:38;;;;;;;3.72;2.70;;;4.30;99.90;;;;;;5089441;28;20115;-73
2023/01/28 13:08:12;;;;;;;3.87;2.57;;;4.30;99.90;;;;;;5077002;28;20052;-75
2023/01/28 13:10:42;;;;;;;3.87;2.40;;;4.30;99.90;;;;;;5103731;28;20032;-73
2023/01/28 13:13:21;;;;;;;4.03;2.43;;;4.30;99.90;;;;;;5085690;28;20024;-74
2023/01/28 13:15:47;;;;;;;4.17;2.53;;;4.40;99.90;;;;;;5095514;28;20028;-74
2023/01/28 13:18:33;;;;;;;4.00;3.03;;;4.40;99.90;;;;;;5111141;28;20023;-74
2023/01/28 13:21:00;;;;;;;5.77;2.97;;;4.40;99.90;;;;;;5093751;28;20042;-73
2023/01/28 13:23:40;;;;;;;4.73;2.50;;;4.40;99.90;;;;;;5080856;28;20441;-73
2023/01/28 13:26:19;;;;;;;4.03;2.30;;;4.40;99.90;;;;;;5077076;28;20024;-75
2023/01/28 13:28:47;;;;;;;4.17;2.57;;;4.40;99.90;;;;;;5112295;28;20028;-73
2023/01/28 13:31:17;;;;;;;5.33;2.40;;;4.40;99.90;;;;;;5111238;28;20024;-73
2023/01/28 13:33:59;;;;;;;5.23;2.50;;;4.40;99.90;;;;;;5094596;28;20055;-72
2023/01/28 13:36:31;;;;;;;5.25;2.63;;;4.40;99.90;;;;;;5104345;28;20658;-72
2023/01/28 13:39:14;;;;;;;3.80;2.20;;;4.40;99.90;;;;;;5085909;28;20027;-73
2023/01/28 13:41:49;;;;;;;3.93;2.30;;;4.30;99.90;;;;;;5076551;28;20032;-73
2023/01/28 13:44:24;;;;;;;3.57;2.13;;;4.30;99.90;;;;;;5105773;28;20410;-73
2023/01/28 13:46:49;;;;;;;2.73;1.97;;;4.30;99.90;;;;;;5083329;28;20111;-73
2023/01/28 13:49:23;;;;;;;4.13;2.40;;;4.30;99.90;;;;;;5078874;28;20122;-73
2023/01/28 13:52:11;;;;;;;3.13;2.13;;;4.30;99.90;;;;;;5106428;28;20036;-73